sensor_id;sensor_type;location;lat;lon;timestamp;P1;durP1;ratioP1;P2;durP2;ratioP2
72109;SDS011;59983;52.010;5.420;2022-07-23T00:01:03;5.40;;;4.65;;
72109;SDS011;59983;52.010;5.420;2022-07-23T00:03:30;5.37;;;4.17;;
72109;SDS011;59983;52.010;5.420;2022-07-23T00:05:57;4.30;;;4.03;;
72109;SDS011;59983;52.010;5.420;2022-07-23T00:08:23;5.32;;;5.03;;
72109;SDS011;59983;52.010;5.420;2022-07-23T00:10:50;6.13;;;5.63;;
72109;SDS011;59983;52.010;5.420;2022-07-23T00:13:16;5.72;;;5.43;;
72109;SDS011;59983;52.010;5.420;2022-07-23T00:15:43;6.50;;;5.37;;
72109;SDS011;59983;52.010;5.420;2022-07-23T00:18:09;5.45;;;5.00;;
72109;SDS011;59983;52.010;5.420;2022-07-23T00:20:36;5.20;;;4.80;;
72109;SDS011;59983;52.010;5.420;2022-07-23T00:23:03;5.03;;;4.72;;
72109;SDS011;59983;52.010;5.420;2022-07-23T00:25:29;5.78;;;5.28;;
72109;SDS011;59983;52.010;5.420;2022-07-23T00:27:57;5.67;;;5.20;;
72109;SDS011;59983;52.010;5.420;2022-07-23T00:30:25;6.15;;;5.70;;
72109;SDS011;59983;52.010;5.420;2022-07-23T00:32:53;6.18;;;5.78;;
72109;SDS011;59983;52.010;5.420;2022-07-23T00:35:23;6.03;;;5.43;;
72109;SDS011;59983;52.010;5.420;2022-07-23T00:37:51;6.22;;;5.30;;
72109;SDS011;59983;52.010;5.420;2022-07-23T00:40:18;9.67;;;4.83;;
72109;SDS011;59983;52.010;5.420;2022-07-23T00:42:45;6.15;;;5.63;;
72109;SDS011;59983;52.010;5.420;2022-07-23T00:45:11;6.22;;;5.70;;
72109;SDS011;59983;52.010;5.420;2022-07-23T00:47:38;5.63;;;5.20;;
72109;SDS011;59983;52.010;5.420;2022-07-23T00:50:06;7.95;;;5.78;;
72109;SDS011;59983;52.010;5.420;2022-07-23T00:52:34;6.50;;;5.90;;
72109;SDS011;59983;52.010;5.420;2022-07-23T00:55:03;7.00;;;5.65;;
72109;SDS011;59983;52.010;5.420;2022-07-23T00:57:30;5.90;;;5.60;;
72109;SDS011;59983;52.010;5.420;2022-07-23T00:59:57;6.03;;;5.20;;
72109;SDS011;59983;52.010;5.420;2022-07-23T01:02:25;6.82;;;6.32;;
72109;SDS011;59983;52.010;5.420;2022-07-23T01:04:52;7.17;;;6.43;;
72109;SDS011;59983;52.010;5.420;2022-07-23T01:07:19;7.07;;;6.68;;
72109;SDS011;59983;52.010;5.420;2022-07-23T01:09:46;7.00;;;6.40;;
72109;SDS011;59983;52.010;5.420;2022-07-23T01:12:13;6.43;;;5.78;;
72109;SDS011;59983;52.010;5.420;2022-07-23T01:14:40;6.80;;;6.40;;
72109;SDS011;59983;52.010;5.420;2022-07-23T01:17:06;6.20;;;5.53;;
72109;SDS011;59983;52.010;5.420;2022-07-23T01:19:33;6.55;;;6.15;;
72109;SDS011;59983;52.010;5.420;2022-07-23T01:22:01;6.57;;;6.07;;
72109;SDS011;59983;52.010;5.420;2022-07-23T01:24:29;5.88;;;5.38;;
72109;SDS011;59983;52.010;5.420;2022-07-23T01:26:56;7.32;;;6.65;;
72109;SDS011;59983;52.010;5.420;2022-07-23T01:29:22;6.73;;;6.33;;
72109;SDS011;59983;52.010;5.420;2022-07-23T01:31:49;5.57;;;5.28;;
72109;SDS011;59983;52.010;5.420;2022-07-23T01:34:16;6.65;;;6.03;;
72109;SDS011;59983;52.010;5.420;2022-07-23T01:36:42;7.07;;;6.35;;
72109;SDS011;59983;52.010;5.420;2022-07-23T01:39:09;7.43;;;6.93;;
72109;SDS011;59983;52.010;5.420;2022-07-23T01:41:36;7.17;;;6.57;;
72109;SDS011;59983;52.010;5.420;2022-07-23T01:44:03;9.27;;;6.68;;
72109;SDS011;59983;52.010;5.420;2022-07-23T01:46:29;6.57;;;6.10;;
72109;SDS011;59983;52.010;5.420;2022-07-23T01:48:56;7.55;;;6.95;;
72109;SDS011;59983;52.010;5.420;2022-07-23T01:51:23;7.05;;;6.47;;
72109;SDS011;59983;52.010;5.420;2022-07-23T01:53:49;6.80;;;6.30;;
72109;SDS011;59983;52.010;5.420;2022-07-23T01:56:16;6.70;;;6.30;;
72109;SDS011;59983;52.010;5.420;2022-07-23T01:58:42;9.45;;;6.97;;
72109;SDS011;59983;52.010;5.420;2022-07-23T02:01:09;7.18;;;6.47;;
72109;SDS011;59983;52.010;5.420;2022-07-23T02:03:35;7.60;;;6.97;;
72109;SDS011;59983;52.010;5.420;2022-07-23T02:06:02;7.20;;;6.70;;
72109;SDS011;59983;52.010;5.420;2022-07-23T02:08:28;6.32;;;5.93;;
72109;SDS011;59983;52.010;5.420;2022-07-23T02:10:55;6.90;;;6.50;;
72109;SDS011;59983;52.010;5.420;2022-07-23T02:13:22;7.15;;;6.75;;
72109;SDS011;59983;52.010;5.420;2022-07-23T02:15:48;7.18;;;6.68;;
72109;SDS011;59983;52.010;5.420;2022-07-23T02:18:15;7.00;;;6.50;;
72109;SDS011;59983;52.010;5.420;2022-07-23T02:20:41;6.60;;;6.10;;
72109;SDS011;59983;52.010;5.420;2022-07-23T02:23:08;6.93;;;6.43;;
72109;SDS011;59983;52.010;5.420;2022-07-23T02:25:34;7.05;;;6.53;;
72109;SDS011;59983;52.010;5.420;2022-07-23T02:28:01;7.35;;;6.47;;
72109;SDS011;59983;52.010;5.420;2022-07-23T02:30:28;6.07;;;5.67;;
72109;SDS011;59983;52.010;5.420;2022-07-23T02:32:55;6.30;;;5.75;;
72109;SDS011;59983;52.010;5.420;2022-07-23T02:35:21;7.55;;;6.95;;
72109;SDS011;59983;52.010;5.420;2022-07-23T02:37:48;7.95;;;7.25;;
72109;SDS011;59983;52.010;5.420;2022-07-23T02:40:16;7.35;;;6.95;;
72109;SDS011;59983;52.010;5.420;2022-07-23T02:42:43;7.47;;;6.97;;
72109;SDS011;59983;52.010;5.420;2022-07-23T02:45:10;7.63;;;6.93;;
72109;SDS011;59983;52.010;5.420;2022-07-23T02:47:37;7.85;;;6.82;;
72109;SDS011;59983;52.010;5.420;2022-07-23T02:50:04;7.47;;;6.88;;
72109;SDS011;59983;52.010;5.420;2022-07-23T02:52:31;7.40;;;6.80;;
72109;SDS011;59983;52.010;5.420;2022-07-23T02:54:58;6.80;;;6.13;;
72109;SDS011;59983;52.010;5.420;2022-07-23T02:57:24;6.25;;;5.75;;
72109;SDS011;59983;52.010;5.420;2022-07-23T02:59:51;6.88;;;6.22;;
72109;SDS011;59983;52.010;5.420;2022-07-23T03:02:17;7.30;;;5.63;;
72109;SDS011;59983;52.010;5.420;2022-07-23T03:04:44;6.20;;;5.80;;
72109;SDS011;59983;52.010;5.420;2022-07-23T03:07:11;6.90;;;6.30;;
72109;SDS011;59983;52.010;5.420;2022-07-23T03:09:37;7.50;;;7.00;;
72109;SDS011;59983;52.010;5.420;2022-07-23T03:12:04;7.22;;;6.80;;
72109;SDS011;59983;52.010;5.420;2022-07-23T03:14:38;6.45;;;6.07;;
72109;SDS011;59983;52.010;5.420;2022-07-23T03:17:05;6.75;;;6.35;;
72109;SDS011;59983;52.010;5.420;2022-07-23T03:19:31;6.77;;;6.30;;
72109;SDS011;59983;52.010;5.420;2022-07-23T03:21:58;7.80;;;7.30;;
72109;SDS011;59983;52.010;5.420;2022-07-23T03:24:24;6.30;;;5.80;;
72109;SDS011;59983;52.010;5.420;2022-07-23T03:27:11;6.25;;;5.95;;
72109;SDS011;59983;52.010;5.420;2022-07-23T03:29:37;7.57;;;6.97;;
72109;SDS011;59983;52.010;5.420;2022-07-23T03:32:04;6.67;;;6.13;;
72109;SDS011;59983;52.010;5.420;2022-07-23T03:34:31;7.35;;;6.70;;
72109;SDS011;59983;52.010;5.420;2022-07-23T03:36:57;6.10;;;5.70;;
72109;SDS011;59983;52.010;5.420;2022-07-23T03:39:27;7.15;;;6.65;;
72109;SDS011;59983;52.010;5.420;2022-07-23T03:41:54;6.60;;;6.07;;
72109;SDS011;59983;52.010;5.420;2022-07-23T03:44:21;7.60;;;6.00;;
72109;SDS011;59983;52.010;5.420;2022-07-23T03:46:48;7.53;;;6.97;;
72109;SDS011;59983;52.010;5.420;2022-07-23T03:49:14;6.97;;;6.45;;
72109;SDS011;59983;52.010;5.420;2022-07-23T03:51:41;6.40;;;5.90;;
72109;SDS011;59983;52.010;5.420;2022-07-23T03:54:07;7.03;;;6.25;;
72109;SDS011;59983;52.010;5.420;2022-07-23T03:56:34;6.40;;;5.90;;
72109;SDS011;59983;52.010;5.420;2022-07-23T03:59:01;7.78;;;6.35;;
72109;SDS011;59983;52.010;5.420;2022-07-23T04:01:28;7.13;;;6.72;;
72109;SDS011;59983;52.010;5.420;2022-07-23T04:03:54;6.78;;;6.28;;
72109;SDS011;59983;52.010;5.420;2022-07-23T04:06:21;7.60;;;6.97;;
72109;SDS011;59983;52.010;5.420;2022-07-23T04:08:47;6.97;;;6.37;;
72109;SDS011;59983;52.010;5.420;2022-07-23T04:11:14;7.25;;;6.75;;
72109;SDS011;59983;52.010;5.420;2022-07-23T04:13:40;8.30;;;7.50;;
72109;SDS011;59983;52.010;5.420;2022-07-23T04:16:07;6.88;;;6.40;;
72109;SDS011;59983;52.010;5.420;2022-07-23T04:18:34;6.78;;;6.22;;
72109;SDS011;59983;52.010;5.420;2022-07-23T04:21:00;7.87;;;7.37;;
72109;SDS011;59983;52.010;5.420;2022-07-23T04:23:27;7.50;;;6.80;;
72109;SDS011;59983;52.010;5.420;2022-07-23T04:25:53;7.57;;;7.00;;
72109;SDS011;59983;52.010;5.420;2022-07-23T04:28:20;5.50;;;5.20;;
72109;SDS011;59983;52.010;5.420;2022-07-23T04:30:46;6.95;;;6.45;;
72109;SDS011;59983;52.010;5.420;2022-07-23T04:33:13;6.63;;;6.03;;
72109;SDS011;59983;52.010;5.420;2022-07-23T04:35:39;6.45;;;5.97;;
72109;SDS011;59983;52.010;5.420;2022-07-23T04:38:06;7.60;;;6.75;;
72109;SDS011;59983;52.010;5.420;2022-07-23T04:40:33;6.57;;;5.45;;
72109;SDS011;59983;52.010;5.420;2022-07-23T04:43:00;6.63;;;6.22;;
72109;SDS011;59983;52.010;5.420;2022-07-23T04:45:26;6.03;;;5.73;;
72109;SDS011;59983;52.010;5.420;2022-07-23T04:47:55;6.47;;;6.10;;
72109;SDS011;59983;52.010;5.420;2022-07-23T04:50:23;6.80;;;6.20;;
72109;SDS011;59983;52.010;5.420;2022-07-23T04:52:50;6.50;;;5.88;;
72109;SDS011;59983;52.010;5.420;2022-07-23T04:55:17;6.97;;;6.45;;
72109;SDS011;59983;52.010;5.420;2022-07-23T04:57:44;8.00;;;6.43;;
72109;SDS011;59983;52.010;5.420;2022-07-23T05:00:10;6.65;;;6.00;;
72109;SDS011;59983;52.010;5.420;2022-07-23T05:02:37;6.97;;;6.47;;
72109;SDS011;59983;52.010;5.420;2022-07-23T05:05:04;6.80;;;6.22;;
72109;SDS011;59983;52.010;5.420;2022-07-23T05:07:31;7.38;;;6.78;;
72109;SDS011;59983;52.010;5.420;2022-07-23T05:09:57;6.37;;;5.87;;
72109;SDS011;59983;52.010;5.420;2022-07-23T05:12:24;6.40;;;5.90;;
72109;SDS011;59983;52.010;5.420;2022-07-23T05:14:50;6.25;;;5.75;;
72109;SDS011;59983;52.010;5.420;2022-07-23T05:17:19;6.32;;;5.72;;
72109;SDS011;59983;52.010;5.420;2022-07-23T05:19:45;7.03;;;6.53;;
72109;SDS011;59983;52.010;5.420;2022-07-23T05:22:12;6.67;;;6.20;;
72109;SDS011;59983;52.010;5.420;2022-07-23T05:24:38;6.90;;;6.50;;
72109;SDS011;59983;52.010;5.420;2022-07-23T05:27:05;7.50;;;6.88;;
72109;SDS011;59983;52.010;5.420;2022-07-23T05:29:31;7.55;;;6.97;;
72109;SDS011;59983;52.010;5.420;2022-07-23T05:31:58;8.25;;;7.50;;
72109;SDS011;59983;52.010;5.420;2022-07-23T05:34:24;8.90;;;8.10;;
72109;SDS011;59983;52.010;5.420;2022-07-23T05:36:51;6.88;;;6.13;;
72109;SDS011;59983;52.010;5.420;2022-07-23T05:39:17;7.28;;;6.60;;
72109;SDS011;59983;52.010;5.420;2022-07-23T05:41:44;7.63;;;6.93;;
72109;SDS011;59983;52.010;5.420;2022-07-23T05:44:10;6.97;;;6.50;;
72109;SDS011;59983;52.010;5.420;2022-07-23T05:46:37;7.63;;;6.87;;
72109;SDS011;59983;52.010;5.420;2022-07-23T05:49:03;7.15;;;6.65;;
72109;SDS011;59983;52.010;5.420;2022-07-23T05:51:31;8.15;;;7.53;;
72109;SDS011;59983;52.010;5.420;2022-07-23T05:53:58;6.82;;;6.38;;
72109;SDS011;59983;52.010;5.420;2022-07-23T05:56:24;7.18;;;6.63;;
72109;SDS011;59983;52.010;5.420;2022-07-23T05:58:51;7.10;;;6.60;;
72109;SDS011;59983;52.010;5.420;2022-07-23T06:01:17;8.75;;;6.68;;
72109;SDS011;59983;52.010;5.420;2022-07-23T06:03:44;6.57;;;5.97;;
72109;SDS011;59983;52.010;5.420;2022-07-23T06:06:11;7.28;;;6.57;;
72109;SDS011;59983;52.010;5.420;2022-07-23T06:08:37;7.00;;;6.35;;
72109;SDS011;59983;52.010;5.420;2022-07-23T06:11:04;7.33;;;6.47;;
72109;SDS011;59983;52.010;5.420;2022-07-23T06:13:30;6.13;;;5.65;;
72109;SDS011;59983;52.010;5.420;2022-07-23T06:15:57;6.40;;;6.00;;
72109;SDS011;59983;52.010;5.420;2022-07-23T06:18:23;6.75;;;5.35;;
72109;SDS011;59983;52.010;5.420;2022-07-23T06:20:50;6.07;;;5.53;;
72109;SDS011;59983;52.010;5.420;2022-07-23T06:23:23;5.37;;;5.07;;
72109;SDS011;59983;52.010;5.420;2022-07-23T06:25:49;7.60;;;5.97;;
72109;SDS011;59983;52.010;5.420;2022-07-23T06:28:16;7.82;;;6.07;;
72109;SDS011;59983;52.010;5.420;2022-07-23T06:30:42;5.50;;;5.20;;
72109;SDS011;59983;52.010;5.420;2022-07-23T06:33:09;9.38;;;5.65;;
72109;SDS011;59983;52.010;5.420;2022-07-23T06:35:37;5.00;;;4.60;;
72109;SDS011;59983;52.010;5.420;2022-07-23T06:38:04;5.25;;;4.95;;
72109;SDS011;59983;52.010;5.420;2022-07-23T06:40:31;11.68;;;5.10;;
72109;SDS011;59983;52.010;5.420;2022-07-23T06:42:57;4.97;;;4.57;;
72109;SDS011;59983;52.010;5.420;2022-07-23T06:45:24;5.95;;;4.35;;
72109;SDS011;59983;52.010;5.420;2022-07-23T06:47:51;5.40;;;4.90;;
72109;SDS011;59983;52.010;5.420;2022-07-23T06:50:17;5.68;;;4.95;;
72109;SDS011;59983;52.010;5.420;2022-07-23T06:52:44;6.82;;;5.28;;
72109;SDS011;59983;52.010;5.420;2022-07-23T06:55:11;4.65;;;4.35;;
72109;SDS011;59983;52.010;5.420;2022-07-23T06:57:38;5.38;;;4.75;;
72109;SDS011;59983;52.010;5.420;2022-07-23T07:00:05;4.73;;;4.37;;
72109;SDS011;59983;52.010;5.420;2022-07-23T07:02:32;5.28;;;4.75;;
72109;SDS011;59983;52.010;5.420;2022-07-23T07:04:58;5.93;;;4.72;;
72109;SDS011;59983;52.010;5.420;2022-07-23T07:07:30;6.70;;;5.07;;
72109;SDS011;59983;52.010;5.420;2022-07-23T07:09:57;5.30;;;4.78;;
72109;SDS011;59983;52.010;5.420;2022-07-23T07:12:23;4.80;;;4.40;;
72109;SDS011;59983;52.010;5.420;2022-07-23T07:14:50;4.05;;;3.67;;
72109;SDS011;59983;52.010;5.420;2022-07-23T07:17:16;4.03;;;3.72;;
72109;SDS011;59983;52.010;5.420;2022-07-23T07:19:43;3.97;;;3.67;;
72109;SDS011;59983;52.010;5.420;2022-07-23T07:22:09;4.40;;;4.10;;
72109;SDS011;59983;52.010;5.420;2022-07-23T07:24:36;3.90;;;3.63;;
72109;SDS011;59983;52.010;5.420;2022-07-23T07:27:04;4.10;;;3.80;;
72109;SDS011;59983;52.010;5.420;2022-07-23T07:29:31;7.88;;;3.78;;
72109;SDS011;59983;52.010;5.420;2022-07-23T07:31:57;6.25;;;4.07;;
72109;SDS011;59983;52.010;5.420;2022-07-23T07:34:24;3.88;;;3.50;;
72109;SDS011;59983;52.010;5.420;2022-07-23T07:36:50;5.37;;;3.90;;
72109;SDS011;59983;52.010;5.420;2022-07-23T07:39:17;4.75;;;4.40;;
72109;SDS011;59983;52.010;5.420;2022-07-23T07:41:43;4.85;;;4.20;;
72109;SDS011;59983;52.010;5.420;2022-07-23T07:44:10;4.68;;;4.38;;
72109;SDS011;59983;52.010;5.420;2022-07-23T07:46:36;5.35;;;4.07;;
72109;SDS011;59983;52.010;5.420;2022-07-23T07:49:03;3.47;;;3.20;;
72109;SDS011;59983;52.010;5.420;2022-07-23T07:51:31;4.60;;;4.00;;
72109;SDS011;59983;52.010;5.420;2022-07-23T07:53:59;4.32;;;4.00;;
72109;SDS011;59983;52.010;5.420;2022-07-23T07:56:26;3.78;;;3.47;;
72109;SDS011;59983;52.010;5.420;2022-07-23T07:58:53;4.07;;;3.72;;
72109;SDS011;59983;52.010;5.420;2022-07-23T08:01:19;3.47;;;3.17;;
72109;SDS011;59983;52.010;5.420;2022-07-23T08:03:46;3.78;;;3.50;;
72109;SDS011;59983;52.010;5.420;2022-07-23T08:06:12;5.00;;;3.28;;
72109;SDS011;59983;52.010;5.420;2022-07-23T08:08:39;3.90;;;3.60;;
72109;SDS011;59983;52.010;5.420;2022-07-23T08:11:06;3.88;;;3.60;;
72109;SDS011;59983;52.010;5.420;2022-07-23T08:13:32;3.63;;;3.33;;
72109;SDS011;59983;52.010;5.420;2022-07-23T08:15:59;3.70;;;3.40;;
72109;SDS011;59983;52.010;5.420;2022-07-23T08:18:26;3.95;;;3.40;;
72109;SDS011;59983;52.010;5.420;2022-07-23T08:20:53;3.08;;;2.90;;
72109;SDS011;59983;52.010;5.420;2022-07-23T08:23:19;3.65;;;3.35;;
72109;SDS011;59983;52.010;5.420;2022-07-23T08:25:46;4.07;;;2.77;;
72109;SDS011;59983;52.010;5.420;2022-07-23T08:28:13;3.20;;;2.90;;
72109;SDS011;59983;52.010;5.420;2022-07-23T08:30:43;3.28;;;2.92;;
72109;SDS011;59983;52.010;5.420;2022-07-23T08:33:12;3.53;;;3.33;;
72109;SDS011;59983;52.010;5.420;2022-07-23T08:35:58;5.70;;;2.97;;
72109;SDS011;59983;52.010;5.420;2022-07-23T08:38:25;2.80;;;2.60;;
72109;SDS011;59983;52.010;5.420;2022-07-23T08:40:53;3.42;;;2.75;;
72109;SDS011;59983;52.010;5.420;2022-07-23T08:43:24;3.08;;;2.80;;
72109;SDS011;59983;52.010;5.420;2022-07-23T08:45:54;3.38;;;2.97;;
72109;SDS011;59983;52.010;5.420;2022-07-23T08:48:24;4.20;;;3.17;;
72109;SDS011;59983;52.010;5.420;2022-07-23T08:50:53;3.10;;;2.90;;
72109;SDS011;59983;52.010;5.420;2022-07-23T08:53:24;3.10;;;2.80;;
72109;SDS011;59983;52.010;5.420;2022-07-23T08:55:52;2.90;;;2.70;;
72109;SDS011;59983;52.010;5.420;2022-07-23T08:58:21;2.53;;;2.17;;
72109;SDS011;59983;52.010;5.420;2022-07-23T09:00:53;3.15;;;2.25;;
72109;SDS011;59983;52.010;5.420;2022-07-23T09:03:21;2.83;;;2.53;;
72109;SDS011;59983;52.010;5.420;2022-07-23T09:05:52;3.50;;;2.65;;
72109;SDS011;59983;52.010;5.420;2022-07-23T09:08:20;3.33;;;3.13;;
72109;SDS011;59983;52.010;5.420;2022-07-23T09:10:49;2.90;;;2.70;;
72109;SDS011;59983;52.010;5.420;2022-07-23T09:13:26;3.70;;;2.95;;
72109;SDS011;59983;52.010;5.420;2022-07-23T09:15:54;2.57;;;2.40;;
72109;SDS011;59983;52.010;5.420;2022-07-23T09:21:23;3.53;;;3.22;;
72109;SDS011;59983;52.010;5.420;2022-07-23T09:24:00;3.67;;;2.00;;
72109;SDS011;59983;52.010;5.420;2022-07-23T09:31:33;3.17;;;2.88;;
72109;SDS011;59983;52.010;5.420;2022-07-23T09:34:18;3.38;;;3.00;;
72109;SDS011;59983;52.010;5.420;2022-07-23T09:36:49;4.03;;;2.75;;
72109;SDS011;59983;52.010;5.420;2022-07-23T09:39:25;4.35;;;2.90;;
72109;SDS011;59983;52.010;5.420;2022-07-23T09:41:56;2.70;;;2.50;;
72109;SDS011;59983;52.010;5.420;2022-07-23T09:44:24;3.55;;;2.42;;
72109;SDS011;59983;52.010;5.420;2022-07-23T09:46:57;2.90;;;2.63;;
72109;SDS011;59983;52.010;5.420;2022-07-23T09:49:24;2.55;;;2.35;;
72109;SDS011;59983;52.010;5.420;2022-07-23T09:56:53;2.60;;;2.38;;
72109;SDS011;59983;52.010;5.420;2022-07-23T09:59:29;2.63;;;2.47;;
72109;SDS011;59983;52.010;5.420;2022-07-23T10:01:57;3.55;;;2.60;;
72109;SDS011;59983;52.010;5.420;2022-07-23T10:04:27;2.58;;;2.45;;
72109;SDS011;59983;52.010;5.420;2022-07-23T10:06:56;2.70;;;2.57;;
72109;SDS011;59983;52.010;5.420;2022-07-23T10:09:26;3.13;;;2.53;;
72109;SDS011;59983;52.010;5.420;2022-07-23T10:12:03;3.95;;;2.83;;
72109;SDS011;59983;52.010;5.420;2022-07-23T10:14:33;3.33;;;3.08;;
72109;SDS011;59983;52.010;5.420;2022-07-23T10:17:01;3.78;;;3.45;;
72109;SDS011;59983;52.010;5.420;2022-07-23T10:19:30;3.33;;;3.07;;
72109;SDS011;59983;52.010;5.420;2022-07-23T10:22:06;3.20;;;2.67;;
72109;SDS011;59983;52.010;5.420;2022-07-23T10:25:10;3.85;;;2.58;;
72109;SDS011;59983;52.010;5.420;2022-07-23T10:30:45;2.60;;;2.40;;
72109;SDS011;59983;52.010;5.420;2022-07-23T10:36:20;6.32;;;2.47;;
72109;SDS011;59983;52.010;5.420;2022-07-23T10:39:28;3.10;;;2.55;;
72109;SDS011;59983;52.010;5.420;2022-07-23T10:42:10;5.43;;;2.67;;
72109;SDS011;59983;52.010;5.420;2022-07-23T10:44:45;4.88;;;2.95;;
72109;SDS011;59983;52.010;5.420;2022-07-23T10:47:29;2.30;;;2.10;;
72109;SDS011;59983;52.010;5.420;2022-07-23T10:50:25;2.30;;;2.10;;
72109;SDS011;59983;52.010;5.420;2022-07-23T10:53:07;2.58;;;2.17;;
72109;SDS011;59983;52.010;5.420;2022-07-23T10:55:45;2.47;;;2.28;;
72109;SDS011;59983;52.010;5.420;2022-07-23T10:58:18;2.30;;;2.10;;
72109;SDS011;59983;52.010;5.420;2022-07-23T11:00:47;2.47;;;2.30;;
72109;SDS011;59983;52.010;5.420;2022-07-23T11:03:28;3.10;;;1.88;;
72109;SDS011;59983;52.010;5.420;2022-07-23T11:05:58;2.35;;;2.20;;
72109;SDS011;59983;52.010;5.420;2022-07-23T11:08:25;2.40;;;2.20;;
72109;SDS011;59983;52.010;5.420;2022-07-23T11:10:56;2.60;;;2.40;;
72109;SDS011;59983;52.010;5.420;2022-07-23T11:13:36;2.20;;;2.10;;
72109;SDS011;59983;52.010;5.420;2022-07-23T11:16:22;2.40;;;2.10;;
72109;SDS011;59983;52.010;5.420;2022-07-23T11:19:00;2.13;;;2.03;;
72109;SDS011;59983;52.010;5.420;2022-07-23T11:24:08;3.15;;;2.10;;
72109;SDS011;59983;52.010;5.420;2022-07-23T11:34:35;2.50;;;2.30;;
72109;SDS011;59983;52.010;5.420;2022-07-23T11:37:07;3.38;;;2.10;;
72109;SDS011;59983;52.010;5.420;2022-07-23T11:39:35;2.97;;;2.23;;
72109;SDS011;59983;52.010;5.420;2022-07-23T11:42:03;3.33;;;3.00;;
72109;SDS011;59983;52.010;5.420;2022-07-23T11:44:33;2.90;;;2.70;;
72109;SDS011;59983;52.010;5.420;2022-07-23T11:47:07;2.70;;;2.17;;
72109;SDS011;59983;52.010;5.420;2022-07-23T11:49:36;3.33;;;2.00;;
72109;SDS011;59983;52.010;5.420;2022-07-23T11:52:10;2.10;;;2.00;;
72109;SDS011;59983;52.010;5.420;2022-07-23T11:54:55;5.43;;;2.08;;
72109;SDS011;59983;52.010;5.420;2022-07-23T11:57:34;2.88;;;2.40;;
72109;SDS011;59983;52.010;5.420;2022-07-23T12:00:04;3.58;;;2.20;;
72109;SDS011;59983;52.010;5.420;2022-07-23T12:02:39;5.22;;;2.17;;
72109;SDS011;59983;52.010;5.420;2022-07-23T12:05:11;1.93;;;1.83;;
72109;SDS011;59983;52.010;5.420;2022-07-23T12:07:42;2.05;;;1.85;;
72109;SDS011;59983;52.010;5.420;2022-07-23T12:10:20;2.40;;;2.20;;
72109;SDS011;59983;52.010;5.420;2022-07-23T12:12:48;3.08;;;1.83;;
72109;SDS011;59983;52.010;5.420;2022-07-23T12:15:24;3.17;;;2.20;;
72109;SDS011;59983;52.010;5.420;2022-07-23T12:18:05;2.10;;;1.90;;
72109;SDS011;59983;52.010;5.420;2022-07-23T12:20:34;1.67;;;1.58;;
72109;SDS011;59983;52.010;5.420;2022-07-23T12:23:06;3.55;;;1.92;;
72109;SDS011;59983;52.010;5.420;2022-07-23T12:25:38;3.17;;;1.98;;
72109;SDS011;59983;52.010;5.420;2022-07-23T12:28:07;2.40;;;1.77;;
72109;SDS011;59983;52.010;5.420;2022-07-23T12:30:40;2.60;;;1.80;;
72109;SDS011;59983;52.010;5.420;2022-07-23T12:33:07;1.50;;;1.40;;
72109;SDS011;59983;52.010;5.420;2022-07-23T12:35:39;3.20;;;1.90;;
72109;SDS011;59983;52.010;5.420;2022-07-23T12:38:09;1.63;;;1.52;;
72109;SDS011;59983;52.010;5.420;2022-07-23T12:40:50;4.85;;;1.95;;
72109;SDS011;59983;52.010;5.420;2022-07-23T12:43:24;6.07;;;1.90;;
72109;SDS011;59983;52.010;5.420;2022-07-23T12:48:37;1.98;;;1.67;;
72109;SDS011;59983;52.010;5.420;2022-07-23T12:51:06;1.80;;;1.70;;
72109;SDS011;59983;52.010;5.420;2022-07-23T12:53:38;1.73;;;1.63;;
72109;SDS011;59983;52.010;5.420;2022-07-23T13:03:59;1.80;;;1.20;;
72109;SDS011;59983;52.010;5.420;2022-07-23T13:09:11;3.60;;;1.10;;
72109;SDS011;59983;52.010;5.420;2022-07-23T13:11:41;1.42;;;1.10;;
72109;SDS011;59983;52.010;5.420;2022-07-23T13:14:08;1.90;;;1.23;;
72109;SDS011;59983;52.010;5.420;2022-07-23T13:16:35;3.95;;;1.27;;
72109;SDS011;59983;52.010;5.420;2022-07-23T13:19:03;1.40;;;1.13;;
72109;SDS011;59983;52.010;5.420;2022-07-23T13:21:36;1.37;;;1.03;;
72109;SDS011;59983;52.010;5.420;2022-07-23T13:24:03;1.63;;;1.17;;
72109;SDS011;59983;52.010;5.420;2022-07-23T13:26:34;2.10;;;1.02;;
72109;SDS011;59983;52.010;5.420;2022-07-23T13:29:01;4.25;;;0.85;;
72109;SDS011;59983;52.010;5.420;2022-07-23T13:31:29;1.63;;;1.15;;
72109;SDS011;59983;52.010;5.420;2022-07-23T13:33:55;3.07;;;1.03;;
72109;SDS011;59983;52.010;5.420;2022-07-23T13:36:22;2.40;;;1.00;;
72109;SDS011;59983;52.010;5.420;2022-07-23T13:38:49;1.98;;;1.02;;
72109;SDS011;59983;52.010;5.420;2022-07-23T13:41:16;2.10;;;1.00;;
72109;SDS011;59983;52.010;5.420;2022-07-23T13:43:44;2.08;;;1.27;;
72109;SDS011;59983;52.010;5.420;2022-07-23T13:46:12;1.93;;;1.03;;
72109;SDS011;59983;52.010;5.420;2022-07-23T13:48:39;3.10;;;1.38;;
72109;SDS011;59983;52.010;5.420;2022-07-23T13:51:07;3.05;;;1.60;;
72109;SDS011;59983;52.010;5.420;2022-07-23T13:53:36;4.10;;;1.50;;
72109;SDS011;59983;52.010;5.420;2022-07-23T13:56:03;3.95;;;1.30;;
72109;SDS011;59983;52.010;5.420;2022-07-23T13:58:29;3.43;;;1.63;;
72109;SDS011;59983;52.010;5.420;2022-07-23T14:00:56;2.30;;;1.30;;
72109;SDS011;59983;52.010;5.420;2022-07-23T14:03:23;1.88;;;1.50;;
72109;SDS011;59983;52.010;5.420;2022-07-23T14:05:51;2.95;;;1.70;;
72109;SDS011;59983;52.010;5.420;2022-07-23T14:08:23;2.78;;;1.20;;
72109;SDS011;59983;52.010;5.420;2022-07-23T14:10:49;2.47;;;1.70;;
72109;SDS011;59983;52.010;5.420;2022-07-23T14:13:16;2.05;;;1.40;;
72109;SDS011;59983;52.010;5.420;2022-07-23T14:15:46;1.65;;;1.35;;
72109;SDS011;59983;52.010;5.420;2022-07-23T14:18:13;2.47;;;1.50;;
72109;SDS011;59983;52.010;5.420;2022-07-23T14:20:40;2.78;;;2.17;;
72109;SDS011;59983;52.010;5.420;2022-07-23T14:23:06;2.37;;;1.90;;
72109;SDS011;59983;52.010;5.420;2022-07-23T14:25:33;1.98;;;1.35;;
72109;SDS011;59983;52.010;5.420;2022-07-23T14:27:59;3.35;;;1.40;;
72109;SDS011;59983;52.010;5.420;2022-07-23T14:30:26;3.85;;;1.92;;
72109;SDS011;59983;52.010;5.420;2022-07-23T14:32:59;3.35;;;2.38;;
72109;SDS011;59983;52.010;5.420;2022-07-23T14:35:26;5.67;;;2.30;;
72109;SDS011;59983;52.010;5.420;2022-07-23T14:37:53;2.15;;;1.92;;
72109;SDS011;59983;52.010;5.420;2022-07-23T14:40:20;4.75;;;2.72;;
72109;SDS011;59983;52.010;5.420;2022-07-23T14:42:48;1.85;;;1.42;;
72109;SDS011;59983;52.010;5.420;2022-07-23T14:45:15;2.85;;;1.52;;
72109;SDS011;59983;52.010;5.420;2022-07-23T14:47:44;2.10;;;1.73;;
72109;SDS011;59983;52.010;5.420;2022-07-23T14:50:13;3.85;;;1.48;;
72109;SDS011;59983;52.010;5.420;2022-07-23T14:52:42;3.97;;;2.20;;
72109;SDS011;59983;52.010;5.420;2022-07-23T14:55:09;2.00;;;1.80;;
72109;SDS011;59983;52.010;5.420;2022-07-23T14:57:35;1.85;;;1.75;;
72109;SDS011;59983;52.010;5.420;2022-07-23T15:00:05;4.30;;;2.43;;
72109;SDS011;59983;52.010;5.420;2022-07-23T15:02:34;3.45;;;2.08;;
72109;SDS011;59983;52.010;5.420;2022-07-23T15:05:01;2.40;;;2.20;;
72109;SDS011;59983;52.010;5.420;2022-07-23T15:07:32;3.05;;;2.20;;
72109;SDS011;59983;52.010;5.420;2022-07-23T15:09:59;6.68;;;2.30;;
72109;SDS011;59983;52.010;5.420;2022-07-23T15:12:25;2.23;;;1.80;;
72109;SDS011;59983;52.010;5.420;2022-07-23T15:14:52;2.88;;;2.45;;
72109;SDS011;59983;52.010;5.420;2022-07-23T15:17:18;2.88;;;2.53;;
72109;SDS011;59983;52.010;5.420;2022-07-23T15:19:46;3.05;;;2.30;;
72109;SDS011;59983;52.010;5.420;2022-07-23T15:22:14;2.45;;;2.25;;
72109;SDS011;59983;52.010;5.420;2022-07-23T15:24:41;2.90;;;2.70;;
72109;SDS011;59983;52.010;5.420;2022-07-23T15:27:08;2.35;;;2.15;;
72109;SDS011;59983;52.010;5.420;2022-07-23T15:29:35;3.42;;;2.47;;
72109;SDS011;59983;52.010;5.420;2022-07-23T15:32:02;2.80;;;2.15;;
72109;SDS011;59983;52.010;5.420;2022-07-23T15:34:29;3.67;;;2.00;;
72109;SDS011;59983;52.010;5.420;2022-07-23T15:36:59;2.50;;;2.30;;
72109;SDS011;59983;52.010;5.420;2022-07-23T15:39:27;3.92;;;2.67;;